createdAt,value
2023-01-13T00:00:01.587Z,8.70
2023-01-13T00:02:28.462Z,8.70
2023-01-13T00:04:55.515Z,8.70
2023-01-13T00:07:22.733Z,8.60
2023-01-13T00:09:49.430Z,8.60
2023-01-13T00:12:16.175Z,8.60
2023-01-13T00:14:42.838Z,8.60
2023-01-13T00:17:09.477Z,8.50
2023-01-13T00:19:36.131Z,8.50
2023-01-13T00:22:02.820Z,8.50
2023-01-13T00:24:29.495Z,8.50
2023-01-13T00:26:56.165Z,8.40
2023-01-13T00:29:22.849Z,8.40
2023-01-13T00:31:50.337Z,8.40
2023-01-13T00:34:17.008Z,8.30
2023-01-13T00:36:43.725Z,8.30
2023-01-13T00:39:10.485Z,8.30
2023-01-13T00:42:09.682Z,8.20
2023-01-13T00:44:36.334Z,8.20
2023-01-13T00:47:03.021Z,8.20
2023-01-13T00:49:29.680Z,8.20
2023-01-13T00:51:58.980Z,8.20
2023-01-13T00:54:25.813Z,8.20
2023-01-13T00:56:52.440Z,8.20
2023-01-13T00:59:19.111Z,8.20
2023-01-13T01:01:45.991Z,8.30
2023-01-13T01:04:12.798Z,8.30
2023-01-13T01:06:39.607Z,8.30
2023-01-13T01:09:06.529Z,8.30
2023-01-13T01:11:34.521Z,8.30
2023-01-13T01:14:03.290Z,8.30
2023-01-13T01:16:32.792Z,8.30
2023-01-13T01:19:00.752Z,8.30
2023-01-13T01:21:28.848Z,8.30
2023-01-13T01:23:55.628Z,8.30
2023-01-13T01:26:25.448Z,8.30
2023-01-13T01:28:52.952Z,8.30
2023-01-13T01:31:22.768Z,8.30
2023-01-13T01:33:50.493Z,8.30
2023-01-13T01:36:19.185Z,8.30
2023-01-13T01:38:46.008Z,8.20
2023-01-13T01:41:15.556Z,8.20
2023-01-13T01:44:06.618Z,8.20
2023-01-13T01:46:42.366Z,8.20
2023-01-13T01:49:12.405Z,8.20
2023-01-13T01:51:45.631Z,8.20
2023-01-13T01:54:16.828Z,8.30
2023-01-13T01:56:45.266Z,8.30
2023-01-13T01:59:12.653Z,8.20
2023-01-13T02:01:41.350Z,8.30
2023-01-13T02:04:19.294Z,8.30
2023-01-13T02:06:46.619Z,8.30
2023-01-13T02:09:14.103Z,8.20
2023-01-13T02:11:59.465Z,8.20
2023-01-13T02:14:28.920Z,8.20
2023-01-13T02:17:16.325Z,8.20
2023-01-13T02:20:05.020Z,8.10
2023-01-13T02:22:31.626Z,8.10
2023-01-13T02:25:31.740Z,8.00
2023-01-13T02:28:17.297Z,8.10
2023-01-13T02:31:12.430Z,8.10
2023-01-13T02:34:02.172Z,8.10
2023-01-13T02:36:43.292Z,8.00
2023-01-13T02:39:42.947Z,8.00
2023-01-13T02:42:37.172Z,8.00
2023-01-13T02:45:11.408Z,8.10
2023-01-13T02:47:41.277Z,8.10
2023-01-13T02:50:15.080Z,8.00
2023-01-13T02:52:52.611Z,8.10
2023-01-13T02:55:25.858Z,8.10
2023-01-13T02:57:54.568Z,8.20
2023-01-13T03:00:23.249Z,8.20
2023-01-13T03:02:49.955Z,8.10
2023-01-13T03:05:17.425Z,8.10
2023-01-13T03:08:02.043Z,8.10
2023-01-13T03:10:37.876Z,8.10
2023-01-13T03:13:19.435Z,8.10
2023-01-13T03:15:58.494Z,8.10
2023-01-13T03:18:56.902Z,8.20
2023-01-13T03:21:39.488Z,8.20
2023-01-13T03:24:21.275Z,8.10
2023-01-13T03:26:58.798Z,8.10
2023-01-13T03:29:36.265Z,8.10
2023-01-13T03:32:33.962Z,8.10
2023-01-13T03:35:19.270Z,8.10
2023-01-13T03:37:54.241Z,8.20
2023-01-13T03:40:28.863Z,8.20
2023-01-13T03:43:28.708Z,8.10
2023-01-13T03:46:02.947Z,8.20
2023-01-13T03:48:32.795Z,8.30
2023-01-13T03:51:11.056Z,8.20
2023-01-13T03:53:49.972Z,8.30
2023-01-13T03:56:26.835Z,8.20
2023-01-13T03:58:54.414Z,8.20
2023-01-13T04:01:33.241Z,8.20
2023-01-13T04:04:22.006Z,8.10
2023-01-13T04:07:13.768Z,8.10
2023-01-13T04:09:54.527Z,8.10
2023-01-13T04:12:48.832Z,8.00
2023-01-13T04:15:21.937Z,8.00
2023-01-13T04:17:49.682Z,8.00
2023-01-13T04:20:16.878Z,8.00
2023-01-13T04:22:43.736Z,8.00
2023-01-13T04:25:11.380Z,7.90
2023-01-13T04:27:38.127Z,7.90
2023-01-13T04:30:05.820Z,7.90
2023-01-13T04:32:35.524Z,7.80
2023-01-13T04:35:02.191Z,7.80
2023-01-13T04:37:29.069Z,7.90
2023-01-13T04:39:55.867Z,7.90
2023-01-13T04:42:22.511Z,7.80
2023-01-13T04:44:49.407Z,7.80
2023-01-13T04:47:16.058Z,7.80
2023-01-13T04:49:42.711Z,7.80
2023-01-13T04:52:09.500Z,7.80
2023-01-13T04:54:36.269Z,7.80
2023-01-13T04:57:02.969Z,7.80
2023-01-13T04:59:29.710Z,7.70
2023-01-13T05:01:56.509Z,7.70
2023-01-13T05:04:23.289Z,7.70
2023-01-13T05:06:50.087Z,7.80
2023-01-13T05:09:16.890Z,7.90
2023-01-13T05:12:02.330Z,7.90
2023-01-13T05:14:47.452Z,7.80
2023-01-13T05:17:21.034Z,7.80
2023-01-13T05:19:47.813Z,7.80
2023-01-13T05:22:33.081Z,7.90
2023-01-13T05:25:21.591Z,7.90
2023-01-13T05:27:56.318Z,7.90
2023-01-13T05:30:25.632Z,7.90
2023-01-13T05:32:52.381Z,7.90
2023-01-13T05:35:19.501Z,7.90
2023-01-13T05:37:47.241Z,7.90
2023-01-13T05:40:35.441Z,8.00
2023-01-13T05:43:26.229Z,7.90
2023-01-13T05:46:00.317Z,7.90
2023-01-13T05:48:33.255Z,7.90
2023-01-13T05:51:00.719Z,7.80
2023-01-13T05:53:27.555Z,7.80
2023-01-13T05:55:54.525Z,7.70
2023-01-13T05:58:23.373Z,7.70
2023-01-13T06:00:50.612Z,7.70
2023-01-13T06:03:19.981Z,7.70
2023-01-13T06:05:48.853Z,7.60
2023-01-13T06:08:15.633Z,7.60
2023-01-13T06:10:42.321Z,7.60
2023-01-13T06:13:09.119Z,7.60
2023-01-13T06:15:35.820Z,7.50
2023-01-13T06:18:04.335Z,7.50
2023-01-13T06:20:31.592Z,7.60
2023-01-13T06:22:59.495Z,7.70
2023-01-13T06:25:36.600Z,7.70
2023-01-13T06:28:03.811Z,7.70
2023-01-13T06:30:39.793Z,7.70
2023-01-13T06:33:11.055Z,7.70
2023-01-13T06:35:39.471Z,7.80
2023-01-13T06:38:11.443Z,7.70
2023-01-13T06:40:38.462Z,7.70
2023-01-13T06:43:17.398Z,7.80
2023-01-13T06:45:51.672Z,7.80
2023-01-13T06:48:24.348Z,7.80
2023-01-13T06:50:51.257Z,7.80
2023-01-13T06:53:18.163Z,7.90
2023-01-13T06:55:44.962Z,7.90
2023-01-13T06:58:12.042Z,7.90
2023-01-13T07:00:38.823Z,7.90
2023-01-13T07:03:13.797Z,7.90
2023-01-13T07:05:41.842Z,7.80
2023-01-13T07:08:10.119Z,7.80
2023-01-13T07:10:37.582Z,7.80
2023-01-13T07:13:23.629Z,7.80
2023-01-13T07:15:58.618Z,7.90
2023-01-13T07:18:31.674Z,7.90
2023-01-13T07:21:03.614Z,7.90
2023-01-13T07:23:32.441Z,7.90
2023-01-13T07:26:00.234Z,7.90
2023-01-13T07:28:28.264Z,8.00
2023-01-13T07:30:55.340Z,8.00
2023-01-13T07:33:22.437Z,8.00
2023-01-13T07:35:55.284Z,8.10
2023-01-13T07:38:21.989Z,8.00
2023-01-13T07:40:48.704Z,8.00
2023-01-13T07:43:33.836Z,8.00
2023-01-13T07:46:06.037Z,8.10
2023-01-13T07:48:34.619Z,8.10
2023-01-13T07:51:06.675Z,8.10
2023-01-13T07:53:34.216Z,8.10
2023-01-13T07:56:01.766Z,8.10
2023-01-13T07:58:29.202Z,8.10
2023-01-13T08:00:56.784Z,8.10
2023-01-13T08:03:24.099Z,8.10
2023-01-13T08:05:51.124Z,8.10
2023-01-13T08:08:18.345Z,8.10
2023-01-13T08:10:45.187Z,8.10
2023-01-13T08:13:22.304Z,8.20
2023-01-13T08:15:51.697Z,8.20
2023-01-13T08:18:22.022Z,8.20
2023-01-13T08:20:49.841Z,8.20
2023-01-13T08:23:17.549Z,8.20
2023-01-13T08:25:44.779Z,8.20
2023-01-13T08:28:12.916Z,8.20
2023-01-13T08:30:39.860Z,8.30
2023-01-13T08:33:08.809Z,8.20
2023-01-13T08:35:40.211Z,8.30
2023-01-13T08:38:08.004Z,8.30
2023-01-13T08:40:35.049Z,8.30
2023-01-13T08:43:01.915Z,8.30
2023-01-13T08:45:31.665Z,8.20
2023-01-13T08:47:58.529Z,8.20
2023-01-13T08:50:25.381Z,8.20
2023-01-13T08:52:52.194Z,8.20
2023-01-13T08:55:19.369Z,8.20
2023-01-13T08:57:46.345Z,8.10
2023-01-13T09:00:13.767Z,8.10
2023-01-13T09:02:40.584Z,8.00
2023-01-13T09:05:11.897Z,7.90
2023-01-13T09:07:39.453Z,7.90
2023-01-13T09:10:08.457Z,7.90
2023-01-13T09:12:54.009Z,7.80
2023-01-13T09:15:21.723Z,7.80
2023-01-13T09:17:48.525Z,7.80
2023-01-13T09:20:15.475Z,7.70
2023-01-13T09:22:42.352Z,7.70
2023-01-13T09:25:09.589Z,7.80
2023-01-13T09:27:36.428Z,7.80
2023-01-13T09:30:03.811Z,7.70
2023-01-13T09:32:30.576Z,7.70
2023-01-13T09:35:00.347Z,7.70
2023-01-13T09:37:37.880Z,7.70
2023-01-13T09:40:22.533Z,7.60
2023-01-13T09:43:24.152Z,7.60
2023-01-13T09:46:02.211Z,7.60
2023-01-13T09:48:52.315Z,7.60
2023-01-13T09:51:30.399Z,7.60
2023-01-13T09:54:20.145Z,7.70
2023-01-13T09:56:47.137Z,7.70
2023-01-13T09:59:16.161Z,7.80
2023-01-13T10:01:52.620Z,7.70
2023-01-13T10:04:19.470Z,7.80
2023-01-13T10:06:56.142Z,7.80
2023-01-13T10:09:30.277Z,7.80
2023-01-13T10:12:18.591Z,7.80
2023-01-13T10:14:55.373Z,7.90
2023-01-13T10:17:44.305Z,7.90
2023-01-13T10:20:33.769Z,7.90
2023-01-13T10:23:26.664Z,8.00
2023-01-13T10:26:26.872Z,8.00
2023-01-13T10:28:55.642Z,8.00
2023-01-13T10:31:23.636Z,8.00
2023-01-13T10:34:01.425Z,8.00
2023-01-13T10:36:28.316Z,8.10
2023-01-13T10:39:14.700Z,8.00
2023-01-13T10:41:41.525Z,8.00
2023-01-13T10:44:18.626Z,8.00
2023-01-13T10:46:56.397Z,8.00
2023-01-13T10:49:39.046Z,8.00
2023-01-13T10:52:27.381Z,8.10
2023-01-13T10:54:55.531Z,8.10
2023-01-13T10:57:27.597Z,8.10
2023-01-13T10:59:55.259Z,8.20
2023-01-13T11:02:30.625Z,8.20
2023-01-13T11:04:58.088Z,8.20
2023-01-13T11:07:50.509Z,8.20
2023-01-13T11:10:17.386Z,8.20
2023-01-13T11:13:05.615Z,8.20
2023-01-13T11:16:02.118Z,8.20
2023-01-13T11:18:35.830Z,8.30
2023-01-13T11:21:07.977Z,8.30
2023-01-13T11:23:40.219Z,8.30
2023-01-13T11:26:20.735Z,8.40
2023-01-13T11:29:00.356Z,8.40
2023-01-13T11:32:01.677Z,8.40
2023-01-13T11:34:38.703Z,8.40
2023-01-13T11:37:15.761Z,8.30
2023-01-13T11:39:47.410Z,8.40
2023-01-13T11:42:36.715Z,8.40
2023-01-13T11:45:18.661Z,8.50
2023-01-13T11:47:53.855Z,8.60
2023-01-13T11:51:07.886Z,8.60
2023-01-13T11:53:58.806Z,8.70
2023-01-13T11:57:06.148Z,8.60
2023-01-13T11:59:59.533Z,8.70
2023-01-13T12:02:35.289Z,8.70
2023-01-13T12:05:19.008Z,8.70
2023-01-13T12:07:51.253Z,8.70
2023-01-13T12:10:35.388Z,8.80
2023-01-13T12:13:26.932Z,8.80
2023-01-13T12:16:04.358Z,8.80
2023-01-13T12:18:31.024Z,8.80
2023-01-13T12:21:12.600Z,8.80
2023-01-13T12:24:02.653Z,8.90
2023-01-13T12:26:34.453Z,8.80
2023-01-13T12:29:20.272Z,8.90
2023-01-13T12:31:51.633Z,8.90
2023-01-13T12:34:40.254Z,8.90
2023-01-13T12:37:27.719Z,9.00
2023-01-13T12:40:00.034Z,9.00
2023-01-13T12:43:07.228Z,9.00
2023-01-13T12:45:34.274Z,9.10
2023-01-13T12:48:01.576Z,9.00
2023-01-13T12:50:29.300Z,9.10
2023-01-13T12:52:59.187Z,9.10
2023-01-13T12:55:28.240Z,9.10
2023-01-13T12:58:04.349Z,9.10
2023-01-13T13:00:40.145Z,9.10
2023-01-13T13:03:12.753Z,9.20
2023-01-13T13:05:48.865Z,9.10
2023-01-13T13:08:44.383Z,9.10
2023-01-13T13:11:32.605Z,9.20
2023-01-13T13:14:06.225Z,9.20
2023-01-13T13:16:37.043Z,9.20
2023-01-13T13:19:20.005Z,9.20
2023-01-13T13:22:14.559Z,9.20
2023-01-13T13:24:51.084Z,9.20
2023-01-13T13:27:40.543Z,9.20
2023-01-13T13:30:25.170Z,9.20
2023-01-13T13:33:29.021Z,9.20
2023-01-13T13:36:20.731Z,9.20
2023-01-13T13:39:40.282Z,9.20
2023-01-13T13:42:32.896Z,9.30
2023-01-13T13:45:20.296Z,9.30
2023-01-13T13:47:47.459Z,9.30
2023-01-13T13:50:20.430Z,9.30
2023-01-13T13:53:06.324Z,9.30
2023-01-13T13:55:33.316Z,9.30
2023-01-13T13:58:01.614Z,9.30
2023-01-13T14:00:35.058Z,9.30
2023-01-13T14:03:05.901Z,9.30
2023-01-13T14:05:34.763Z,9.30
2023-01-13T14:08:16.543Z,9.30
2023-01-13T14:10:45.593Z,9.30
2023-01-13T14:13:20.530Z,9.30
2023-01-13T14:15:50.214Z,9.30
2023-01-13T14:18:21.657Z,9.30
2023-01-13T14:21:18.386Z,9.30
2023-01-13T14:24:01.726Z,9.30
2023-01-13T14:26:32.175Z,9.30
2023-01-13T14:29:01.356Z,9.30
2023-01-13T14:31:29.290Z,9.20
2023-01-13T14:33:58.509Z,9.20
2023-01-13T14:36:36.850Z,9.20
2023-01-13T14:39:03.534Z,9.30
2023-01-13T14:41:35.942Z,9.20
2023-01-13T14:44:28.668Z,9.20
2023-01-13T14:46:58.256Z,9.30
2023-01-13T14:49:37.379Z,9.30
2023-01-13T14:52:10.210Z,9.20
2023-01-13T14:54:53.685Z,9.20
2023-01-13T14:57:33.788Z,9.20
2023-01-13T15:00:16.073Z,9.20
2023-01-13T15:02:44.041Z,9.10
2023-01-13T15:05:16.992Z,9.10
2023-01-13T15:08:17.220Z,9.10
2023-01-13T15:11:04.575Z,9.00
2023-01-13T15:13:48.454Z,9.10
2023-01-13T15:16:25.708Z,9.10
2023-01-13T15:18:52.919Z,9.00
2023-01-13T15:21:19.997Z,9.00
2023-01-13T15:23:47.460Z,9.00
2023-01-13T15:26:26.198Z,9.00
2023-01-13T15:28:56.207Z,9.10
2023-01-13T15:31:24.244Z,9.10
2023-01-13T15:33:51.525Z,9.00
2023-01-13T15:36:28.573Z,9.10
2023-01-13T15:38:56.343Z,9.00
2023-01-13T15:41:42.375Z,9.00
2023-01-13T15:44:37.745Z,9.00
2023-01-13T15:47:09.449Z,8.90
2023-01-13T15:49:46.477Z,8.90
2023-01-13T15:52:27.656Z,9.00
2023-01-13T15:54:55.014Z,8.90
2023-01-13T15:57:30.640Z,8.90
2023-01-13T16:00:00.780Z,8.90
2023-01-13T16:02:27.564Z,8.90
2023-01-13T16:04:54.772Z,8.90
2023-01-13T16:07:23.597Z,8.90
2023-01-13T16:09:50.451Z,8.90
2023-01-13T16:12:17.215Z,8.90
2023-01-13T16:14:44.060Z,8.90
2023-01-13T16:17:22.139Z,8.80
2023-01-13T16:19:49.443Z,8.90
2023-01-13T16:22:16.930Z,8.90
2023-01-13T16:24:43.882Z,8.90
2023-01-13T16:27:17.672Z,8.90
2023-01-13T16:29:45.784Z,8.90
2023-01-13T16:32:13.091Z,8.90
2023-01-13T16:34:40.004Z,8.90
2023-01-13T16:37:31.797Z,8.90
2023-01-13T16:39:58.695Z,8.90
2023-01-13T16:42:25.506Z,8.90
2023-01-13T16:44:52.906Z,8.80
2023-01-13T16:47:20.213Z,8.80
2023-01-13T16:49:53.176Z,8.80
2023-01-13T16:52:20.127Z,8.70
2023-01-13T16:54:46.931Z,8.80
2023-01-13T16:57:14.347Z,8.80
2023-01-13T16:59:41.356Z,8.70
2023-01-13T17:02:15.880Z,8.70
2023-01-13T17:04:43.553Z,8.60
2023-01-13T17:07:15.072Z,8.50
2023-01-13T17:09:42.012Z,8.50
2023-01-13T17:12:09.992Z,8.30
2023-01-13T17:14:36.707Z,8.20
2023-01-13T17:17:03.549Z,8.10
2023-01-13T17:19:30.642Z,8.10
2023-01-13T17:21:58.147Z,8.00
2023-01-13T17:24:25.819Z,8.00
2023-01-13T17:26:52.696Z,7.90
2023-01-13T17:29:22.551Z,7.80
2023-01-13T17:31:51.003Z,7.70
2023-01-13T17:34:23.513Z,7.70
2023-01-13T17:36:50.366Z,7.60
2023-01-13T17:39:23.607Z,7.50
2023-01-13T17:41:51.156Z,7.50
2023-01-13T17:47:00.309Z,7.30
2023-01-13T17:49:27.029Z,7.20
2023-01-13T17:51:53.955Z,7.10
2023-01-13T17:54:21.515Z,7.00
2023-01-13T17:56:48.241Z,7.00
2023-01-13T17:59:17.361Z,7.00
2023-01-13T18:01:44.876Z,7.00
2023-01-13T18:04:20.068Z,7.00
2023-01-13T18:06:47.038Z,7.00
2023-01-13T18:09:14.276Z,7.00
2023-01-13T18:11:41.548Z,7.00
2023-01-13T18:14:09.880Z,7.10
2023-01-13T18:16:37.567Z,7.10
2023-01-13T18:19:22.900Z,7.10
2023-01-13T18:22:08.352Z,7.20
2023-01-13T18:24:53.990Z,7.20
2023-01-13T18:27:33.510Z,7.20
2023-01-13T18:30:02.353Z,7.20
2023-01-13T18:32:33.033Z,7.20
2023-01-13T18:35:07.077Z,7.30
2023-01-13T18:37:42.376Z,7.30
2023-01-13T18:40:11.598Z,7.40
2023-01-13T18:42:55.062Z,7.40
2023-01-13T18:45:30.415Z,7.50
2023-01-13T18:47:59.646Z,7.40
2023-01-13T18:50:27.099Z,7.50
2023-01-13T18:52:54.253Z,7.40
2023-01-13T18:55:22.017Z,7.40
2023-01-13T18:57:49.285Z,7.40
2023-01-13T19:03:29.943Z,7.40
2023-01-13T19:06:07.579Z,7.40
2023-01-13T19:08:34.585Z,7.40
2023-01-13T19:11:06.506Z,7.40
2023-01-13T19:13:36.138Z,7.40
2023-01-13T19:16:07.130Z,7.50
2023-01-13T19:18:35.134Z,7.50
2023-01-13T19:21:06.165Z,7.40
2023-01-13T19:23:33.587Z,7.40
2023-01-13T19:26:05.034Z,7.40
2023-01-13T19:28:32.591Z,7.50
2023-01-13T19:31:01.405Z,7.50
2023-01-13T19:33:31.548Z,7.50
2023-01-13T19:35:58.893Z,7.60
2023-01-13T19:38:27.312Z,7.60
2023-01-13T19:40:56.319Z,7.60
2023-01-13T19:43:42.359Z,7.60
2023-01-13T19:46:09.995Z,7.60
2023-01-13T19:48:37.221Z,7.60
2023-01-13T19:51:04.318Z,7.60
2023-01-13T19:53:32.406Z,7.60
2023-01-13T19:55:59.591Z,7.70
2023-01-13T19:58:26.807Z,7.70
2023-01-13T20:00:54.148Z,7.60
2023-01-13T20:03:24.337Z,7.60
2023-01-13T20:05:51.951Z,7.60
2023-01-13T20:08:22.414Z,7.70
2023-01-13T20:10:49.674Z,7.80
2023-01-13T20:13:16.835Z,7.80
2023-01-13T20:15:43.990Z,7.80
2023-01-13T20:18:11.010Z,7.80
2023-01-13T20:20:37.878Z,7.70
2023-01-13T20:23:05.047Z,7.70
2023-01-13T20:25:31.978Z,7.70
2023-01-13T20:28:01.225Z,7.60
2023-01-13T20:30:27.983Z,7.50
2023-01-13T20:32:54.926Z,7.60
2023-01-13T20:35:21.788Z,7.60
2023-01-13T20:37:48.506Z,7.50
2023-01-13T20:40:16.197Z,7.50
2023-01-13T20:42:45.058Z,7.50
2023-01-13T20:48:08.756Z,7.40
2023-01-13T20:50:35.467Z,7.40
2023-01-13T20:53:02.228Z,7.40
2023-01-13T20:55:29.150Z,7.40
2023-01-13T20:57:55.911Z,7.40
2023-01-13T21:00:22.648Z,7.30
2023-01-13T21:02:49.520Z,7.30
2023-01-13T21:05:16.425Z,7.30
2023-01-13T21:07:43.360Z,7.40
2023-01-13T21:10:11.460Z,7.40
2023-01-13T21:12:57.028Z,7.30
2023-01-13T21:15:25.679Z,7.30
2023-01-13T21:18:11.237Z,7.30
2023-01-13T21:20:39.063Z,7.30
2023-01-13T21:23:06.431Z,7.40
2023-01-13T21:25:35.417Z,7.40
2023-01-13T21:28:05.927Z,7.40
2023-01-13T21:30:33.645Z,7.40
2023-01-13T21:33:00.887Z,7.40
2023-01-13T21:35:27.825Z,7.40
2023-01-13T21:37:54.556Z,7.40
2023-01-13T21:40:21.595Z,7.40
2023-01-13T21:43:06.840Z,7.40
2023-01-13T21:45:52.151Z,7.40
2023-01-13T21:48:18.854Z,7.40
2023-01-13T21:50:45.592Z,7.40
2023-01-13T21:53:12.283Z,7.40
2023-01-13T21:55:39.096Z,7.40
2023-01-13T21:58:15.037Z,7.40
2023-01-13T22:00:43.815Z,7.40
2023-01-13T22:03:12.546Z,7.40
2023-01-13T22:05:40.150Z,7.30
2023-01-13T22:08:07.355Z,7.20
2023-01-13T22:10:34.337Z,7.30
2023-01-13T22:13:21.753Z,7.30
2023-01-13T22:15:48.500Z,7.30
2023-01-13T22:18:15.247Z,7.30
2023-01-13T22:20:42.093Z,7.30
2023-01-13T22:23:08.805Z,7.30
2023-01-13T22:25:35.533Z,7.30
2023-01-13T22:28:03.539Z,7.30
2023-01-13T22:30:32.395Z,7.30
2023-01-13T22:32:59.748Z,7.40
2023-01-13T22:35:26.637Z,7.40
2023-01-13T22:37:53.334Z,7.40
2023-01-13T22:40:20.087Z,7.50
2023-01-13T22:42:46.756Z,7.50
2023-01-13T22:45:14.260Z,7.60
2023-01-13T22:47:41.200Z,7.60
2023-01-13T22:50:09.351Z,7.60
2023-01-13T22:52:36.416Z,7.60
2023-01-13T22:55:04.258Z,7.60
2023-01-13T22:57:46.460Z,7.60
2023-01-13T23:00:14.833Z,7.60
2023-01-13T23:02:41.629Z,7.60
2023-01-13T23:05:08.675Z,7.60
2023-01-13T23:07:36.056Z,7.60
2023-01-13T23:10:03.855Z,7.60
2023-01-13T23:12:30.603Z,7.60
2023-01-13T23:14:57.430Z,7.60
2023-01-13T23:17:24.148Z,7.60
2023-01-13T23:19:50.885Z,7.60
2023-01-13T23:22:17.608Z,7.60
2023-01-13T23:24:44.505Z,7.50
2023-01-13T23:27:11.243Z,7.60
2023-01-13T23:29:38.071Z,7.60
2023-01-13T23:32:05.345Z,7.60
2023-01-13T23:34:32.064Z,7.60
2023-01-13T23:36:58.856Z,7.60
2023-01-13T23:39:25.703Z,7.60
2023-01-13T23:41:52.440Z,7.70
2023-01-13T23:44:19.195Z,7.70
2023-01-13T23:46:45.919Z,7.70
2023-01-13T23:49:12.627Z,7.70
2023-01-13T23:51:39.554Z,7.70
2023-01-13T23:54:06.409Z,7.70
2023-01-13T23:56:34.712Z,7.70
2023-01-13T23:59:01.411Z,7.70
